Terminal Aerodrome Forecast
Issued by NWS

Home | Current Version | Previous Version | Text Only | Print | Product List | Glossary On
Versions: 1 2 3 4 5 6 7 8 9 10 11 12 13 14 15
000
FTUS43 KDTX 300520
TAFDET
TAF
KDET 300520Z 3006/3106 27006KT P6SM SKC
     FM301500 28013G20KT P6SM FEW060
     FM310000 26008KT P6SM SCT080=

USA.gov is the U.S. government's official web portal to all federal, state and local government web resources and services.